Time;durP1;ratioP1;P1;durP2;ratioP2;P2;SDS_P1;SDS_P2;PMS_P1;PMS_P2;Temp;Humidity;BMP_temperature;BMP_pressure;BME280_temperature;BME280_humidity;BME280_pressure;Samples;Min_cycle;Max_cycle;Signal;HPM_P1;HPM_P2
2022/06/06 00:00:15;;;;;;;;;41.80;37.40;;;;;;;;5229291;28;8792;-70
2022/06/06 00:02:49;;;;;;;;;44.60;38.20;;;;;;;;5193645;28;8801;-68
2022/06/06 00:05:20;;;;;;;;;44.00;38.20;;;;;;;;5208883;28;9529;-69
2022/06/06 00:07:51;;;;;;;;;39.00;36.00;;;;;;;;5196871;28;8789;-69
2022/06/06 00:10:23;;;;;;;;;42.00;36.40;;;;;;;;5229338;28;8792;-70
2022/06/06 00:12:54;;;;;;;;;38.20;34.80;;;;;;;;5213045;28;8769;-70
2022/06/06 00:15:26;;;;;;;;;41.20;36.40;;;;;;;;5212795;28;8916;-70
2022/06/06 00:17:57;;;;;;;;;38.00;34.60;;;;;;;;5212420;28;8798;-68
2022/06/06 00:20:30;;;;;;;;;42.80;38.20;;;;;;;;5210818;28;8820;-71
2022/06/06 00:23:01;;;;;;;;;47.40;40.80;;;;;;;;5191831;28;8918;-71
2022/06/06 00:25:32;;;;;;;;;40.60;37.60;;;;;;;;5208294;28;8835;-70
2022/06/06 00:28:04;;;;;;;;;43.00;38.00;;;;;;;;5226133;28;8774;-70
2022/06/06 00:30:35;;;;;;;;;44.60;38.40;;;;;;;;5208235;28;8810;-71
2022/06/06 00:36:14;;;;;;;;;48.40;40.60;;;;;;;;5208092;28;8799;-70
2022/06/06 00:38:45;;;;;;;;;48.00;41.00;;;;;;;;5207697;28;8797;-69
2022/06/06 00:41:16;;;;;;;;;47.00;41.25;;;;;;;;5199221;28;8792;-68
2022/06/06 00:44:01;;;;;;;;;52.00;44.00;;;;;;;;5228643;28;8780;-68
2022/06/06 00:46:36;;;;;;;;;54.40;46.40;;;;;;;;5246435;28;8843;-68
2022/06/06 00:49:14;;;;;;;;;57.40;47.60;;;;;;;;5211659;28;8820;-69
2022/06/06 00:51:45;;;;;;;;;53.40;45.60;;;;;;;;5191717;28;8776;-69
2022/06/06 00:54:17;;;;;;;;;56.25;47.00;;;;;;;;5191699;28;8782;-72
2022/06/06 00:57:09;;;;;;;;;56.80;47.00;;;;;;;;5225713;28;11432;-72
2022/06/06 00:59:43;;;;;;;;;26.00;20.40;;;;;;;;5207904;28;8860;-71
2022/06/06 01:02:14;;;;;;;;;58.80;49.40;;;;;;;;5208782;28;8817;-73
2022/06/06 01:04:46;;;;;;;;;59.60;50.20;;;;;;;;5191121;28;9606;-73
2022/06/06 01:07:17;;;;;;;;;56.60;46.60;;;;;;;;5207769;28;9021;-71
2022/06/06 01:09:48;;;;;;;;;54.20;45.40;;;;;;;;5207891;28;8925;-72
2022/06/06 01:12:21;;;;;;;;;56.40;48.20;;;;;;;;5207894;28;8783;-72
2022/06/06 01:14:55;;;;;;;;;52.60;44.80;;;;;;;;5191579;28;9465;-70
2022/06/06 01:17:32;;;;;;;;;59.80;48.00;;;;;;;;5203707;28;8907;-72
2022/06/06 01:20:09;;;;;;;;;57.40;48.00;;;;;;;;5228014;28;8922;-72
2022/06/06 01:23:18;;;;;;;;;49.40;41.60;;;;;;;;5217913;28;8788;-72
2022/06/06 01:25:58;;;;;;;;;46.40;39.20;;;;;;;;5204993;28;8833;-71
2022/06/06 01:28:37;;;;;;;;;29.40;29.40;;;;;;;;5187357;28;8796;-71
2022/06/06 01:31:10;;;;;;;;;49.80;42.60;;;;;;;;5187289;28;8773;-71
2022/06/06 01:33:53;;;;;;;;;47.40;41.00;;;;;;;;5187277;28;8817;-72
2022/06/06 01:36:27;;;;;;;;;48.40;41.00;;;;;;;;5200885;28;8821;-70
2022/06/06 01:39:00;;;;;;;;;43.20;37.20;;;;;;;;5191140;28;8799;-71
2022/06/06 01:41:37;;;;;;;;;39.60;34.80;;;;;;;;5202916;28;8799;-71
2022/06/06 01:44:26;;;;;;;;;39.40;35.80;;;;;;;;5213882;28;8824;-71
2022/06/06 01:46:59;;;;;;;;;44.50;39.25;;;;;;;;5226292;28;8821;-70
2022/06/06 01:49:33;;;;;;;;;45.40;39.00;;;;;;;;5208390;28;9397;-70
2022/06/06 01:52:07;;;;;;;;;34.40;33.00;;;;;;;;5194256;28;9676;-70
2022/06/06 01:54:39;;;;;;;;;52.20;44.20;;;;;;;;5211198;28;8901;-69
2022/06/06 01:57:13;;;;;;;;;43.20;38.20;;;;;;;;5229329;28;8795;-69
2022/06/06 01:59:44;;;;;;;;;38.00;35.20;;;;;;;;5229239;28;8783;-70
2022/06/06 02:02:15;;;;;;;;;34.80;32.40;;;;;;;;5229082;28;8801;-71
2022/06/06 02:04:46;;;;;;;;;43.40;38.20;;;;;;;;5231476;28;8773;-71
2022/06/06 02:07:17;;;;;;;;;39.60;35.80;;;;;;;;5194716;28;8876;-71
2022/06/06 02:10:11;;;;;;;;;41.00;37.20;;;;;;;;5210960;28;8821;-71
2022/06/06 02:12:43;;;;;;;;;37.60;35.00;;;;;;;;5194634;28;8841;-72
2022/06/06 02:15:16;;;;;;;;;34.60;33.00;;;;;;;;5194385;28;8795;-72
2022/06/06 02:17:47;;;;;;;;;38.00;35.00;;;;;;;;5194484;28;8821;-72
2022/06/06 02:20:19;;;;;;;;;43.40;38.40;;;;;;;;5215602;28;8793;-72
2022/06/06 02:22:50;;;;;;;;;46.20;39.80;;;;;;;;5214875;28;8808;-72
2022/06/06 02:25:22;;;;;;;;;43.00;38.00;;;;;;;;5249044;28;9552;-71
2022/06/06 02:27:54;;;;;;;;;47.00;40.40;;;;;;;;5212887;28;10612;-72
2022/06/06 02:30:28;;;;;;;;;54.60;46.40;;;;;;;;5215124;28;8792;-71
2022/06/06 02:33:00;;;;;;;;;95.80;94.40;;;;;;;;5214716;28;8761;-72
2022/06/06 02:35:32;;;;;;;;;161.33;144.00;;;;;;;;5214527;28;8789;-73
2022/06/06 02:38:03;;;;;;;;;232.25;188.50;;;;;;;;5224457;28;9704;-72
2022/06/06 02:40:34;;;;;;;;;152.33;143.67;;;;;;;;5193922;28;11600;-72
2022/06/06 02:43:05;;;;;;;;;118.00;105.67;;;;;;;;5194777;28;9734;-72
2022/06/06 02:45:36;;;;;;;;;113.00;109.00;;;;;;;;5193726;28;8845;-72
2022/06/06 02:48:26;;;;;;;;;101.50;96.50;;;;;;;;5212727;28;9540;-71
2022/06/06 02:50:58;;;;;;;;;114.67;103.00;;;;;;;;5213242;28;8807;-71
2022/06/06 02:53:29;;;;;;;;;80.40;70.20;;;;;;;;5193542;28;8775;-72
2022/06/06 02:56:00;;;;;;;;;83.60;76.20;;;;;;;;5177058;28;9654;-72
2022/06/06 02:58:31;;;;;;;;;59.60;48.60;;;;;;;;5198960;28;8817;-72
2022/06/06 03:01:05;;;;;;;;;55.80;46.00;;;;;;;;5248763;28;8978;-72
2022/06/06 03:03:55;;;;;;;;;67.20;53.40;;;;;;;;5206707;28;8811;-72
2022/06/06 03:06:35;;;;;;;;;56.50;47.50;;;;;;;;5189509;28;8812;-72
2022/06/06 03:09:25;;;;;;;;;46.00;38.80;;;;;;;;5204971;28;11505;-72
2022/06/06 03:12:09;;;;;;;;;57.60;47.20;;;;;;;;5230656;28;8756;-72
2022/06/06 03:14:59;;;;;;;;;69.60;56.60;;;;;;;;5230487;28;8784;-72
2022/06/06 03:20:57;;;;;;;;;56.80;46.60;;;;;;;;5238755;28;8775;-72
2022/06/06 03:23:43;;;;;;;;;44.20;38.20;;;;;;;;5209830;28;8801;-72
2022/06/06 03:26:17;;;;;;;;;32.00;31.00;;;;;;;;5209597;28;8943;-72
2022/06/06 03:29:00;;;;;;;;;43.80;37.60;;;;;;;;5227211;28;8789;-72
2022/06/06 03:31:53;;;;;;;;;33.40;32.00;;;;;;;;5216039;28;8873;-73
2022/06/06 03:34:32;;;;;;;;;31.00;30.80;;;;;;;;5229820;28;8780;-72
2022/06/06 03:37:19;;;;;;;;;135.67;120.00;;;;;;;;5247965;28;8857;-73
2022/06/06 03:40:05;;;;;;;;;34.60;32.80;;;;;;;;5247680;28;8918;-73
2022/06/06 03:42:40;;;;;;;;;16.20;15.80;;;;;;;;5212574;28;8795;-72
2022/06/06 03:45:14;;;;;;;;;17.40;17.40;;;;;;;;5209550;28;8802;-73
2022/06/06 03:48:33;;;;;;;;;19.00;18.50;;;;;;;;5226934;28;8806;-73
2022/06/06 03:51:07;;;;;;;;;26.00;25.20;;;;;;;;5192934;28;9510;-71
2022/06/06 03:53:44;;;;;;;;;9.25;9.25;;;;;;;;5209397;28;8784;-72
2022/06/06 03:56:34;;;;;;;;;10.25;10.25;;;;;;;;5209615;28;8812;-71
2022/06/06 03:59:07;;;;;;;;;14.00;14.00;;;;;;;;5226388;28;8809;-73
2022/06/06 04:01:40;;;;;;;;;12.00;12.00;;;;;;;;5223652;28;8779;-73
2022/06/06 04:04:11;;;;;;;;;6.00;6.00;;;;;;;;5192228;28;8862;-71
2022/06/06 04:06:42;;;;;;;;;7.75;7.75;;;;;;;;5209372;28;8803;-71
2022/06/06 04:09:33;;;;;;;;;5.75;5.75;;;;;;;;5231632;28;8803;-71
2022/06/06 04:12:07;;;;;;;;;8.00;8.00;;;;;;;;5229128;28;8803;-72
2022/06/06 04:14:56;;;;;;;;;7.25;7.00;;;;;;;;5228896;28;8768;-72
2022/06/06 04:17:46;;;;;;;;;17.00;16.75;;;;;;;;5228538;28;8781;-74
2022/06/06 04:20:20;;;;;;;;;11.00;11.00;;;;;;;;5229256;28;8793;-72
2022/06/06 04:23:10;;;;;;;;;11.75;11.75;;;;;;;;5210670;28;8800;-68
2022/06/06 04:26:03;;;;;;;;;12.50;12.50;;;;;;;;5227334;28;9544;-69
2022/06/06 04:28:53;;;;;;;;;13.25;13.00;;;;;;;;5210477;28;8791;-72
2022/06/06 04:31:37;;;;;;;;;12.75;12.75;;;;;;;;5189880;28;8821;-71
2022/06/06 04:34:15;;;;;;;;;15.00;15.00;;;;;;;;5207162;28;8799;-71
2022/06/06 04:36:59;;;;;;;;;14.50;14.50;;;;;;;;5194817;28;8809;-71
2022/06/06 04:39:52;;;;;;;;;15.00;15.00;;;;;;;;5215716;28;8795;-74
2022/06/06 04:42:34;;;;;;;;;16.00;16.00;;;;;;;;5190567;28;8830;-71
2022/06/06 04:45:23;;;;;;;;;14.00;14.00;;;;;;;;5206062;28;8952;-71
2022/06/06 04:47:56;;;;;;;;;15.50;15.50;;;;;;;;5217238;28;9585;-72
2022/06/06 04:50:28;;;;;;;;;19.75;19.75;;;;;;;;5196999;28;8929;-73
2022/06/06 04:53:01;;;;;;;;;23.75;23.25;;;;;;;;5192347;28;8815;-73
2022/06/06 04:55:33;;;;;;;;;18.50;18.50;;;;;;;;5203528;28;8840;-73
2022/06/06 04:58:05;;;;;;;;;16.75;16.75;;;;;;;;5231123;28;8817;-71
2022/06/06 05:00:37;;;;;;;;;26.80;26.60;;;;;;;;5207113;28;8810;-71
2022/06/06 05:03:08;;;;;;;;;18.25;18.25;;;;;;;;5187359;28;8804;-71
2022/06/06 05:05:46;;;;;;;;;21.25;21.25;;;;;;;;5209863;28;8830;-70
2022/06/06 05:08:37;;;;;;;;;28.80;28.80;;;;;;;;5180804;28;8807;-71
2022/06/06 05:11:55;;;;;;;;;21.00;21.00;;;;;;;;5215539;28;8797;-72
2022/06/06 05:14:38;;;;;;;;;18.25;18.25;;;;;;;;5164781;28;8799;-71
2022/06/06 05:17:30;;;;;;;;;13.75;13.75;;;;;;;;5189435;28;8790;-72
2022/06/06 05:20:17;;;;;;;;;12.75;12.75;;;;;;;;5202519;28;8787;-71
2022/06/06 05:23:22;;;;;;;;;8.75;8.75;;;;;;;;5191531;28;8790;-72
2022/06/06 05:25:54;;;;;;;;;9.75;9.75;;;;;;;;5191045;28;8822;-72
2022/06/06 05:28:52;;;;;;;;;9.75;9.75;;;;;;;;5211989;28;9576;-71
2022/06/06 05:31:31;;;;;;;;;8.50;8.50;;;;;;;;5200848;28;8805;-72
2022/06/06 05:34:15;;;;;;;;;6.25;6.25;;;;;;;;5211097;28;8818;-70
2022/06/06 05:37:04;;;;;;;;;8.00;8.00;;;;;;;;5213621;28;8806;-72
2022/06/06 05:39:46;;;;;;;;;7.00;7.00;;;;;;;;5195780;28;8886;-72
2022/06/06 05:42:48;;;;;;;;;8.75;8.75;;;;;;;;5215472;28;8845;-71
2022/06/06 05:45:32;;;;;;;;;2.00;2.00;;;;;;;;5178709;28;8925;-71
2022/06/06 05:48:10;;;;;;;;;3.25;3.25;;;;;;;;5195312;28;8807;-70
2022/06/06 05:50:43;;;;;;;;;5.25;5.25;;;;;;;;5211896;28;8783;-70
2022/06/06 05:53:34;;;;;;;;;7.00;7.00;;;;;;;;5211354;28;8833;-72
2022/06/06 05:56:44;;;;;;;;;6.25;6.25;;;;;;;;5208231;28;8830;-70
2022/06/06 05:59:22;;;;;;;;;6.75;6.75;;;;;;;;5194846;28;8856;-71
2022/06/06 06:02:06;;;;;;;;;7.00;7.00;;;;;;;;5211028;28;8803;-70
2022/06/06 06:04:40;;;;;;;;;6.25;6.25;;;;;;;;5211224;28;8833;-71
2022/06/06 06:07:48;;;;;;;;;7.50;7.50;;;;;;;;5226016;28;8793;-71
2022/06/06 06:10:42;;;;;;;;;6.75;6.75;;;;;;;;5216397;28;8912;-73
2022/06/06 06:13:33;;;;;;;;;9.50;9.50;;;;;;;;5196171;28;8830;-71
2022/06/06 06:16:13;;;;;;;;;5.75;5.75;;;;;;;;5215425;28;8795;-71
2022/06/06 06:18:52;;;;;;;;;10.00;10.00;;;;;;;;5192584;28;8794;-71
2022/06/06 06:21:27;;;;;;;;;7.00;7.00;;;;;;;;5215304;28;8836;-71
2022/06/06 06:24:46;;;;;;;;;1.00;1.00;;;;;;;;5234322;28;8834;-72
2022/06/06 06:27:20;;;;;;;;;9.50;9.50;;;;;;;;5227007;28;8810;-71
2022/06/06 06:30:18;;;;;;;;;7.00;7.00;;;;;;;;5227590;28;8802;-70
2022/06/06 06:33:06;;;;;;;;;8.50;8.50;;;;;;;;5228494;28;8859;-70
2022/06/06 06:35:59;;;;;;;;;9.50;8.50;;;;;;;;5205417;28;8807;-71
2022/06/06 06:38:37;;;;;;;;;11.25;8.50;;;;;;;;5192631;28;8793;-71
2022/06/06 06:41:23;;;;;;;;;9.50;9.50;;;;;;;;5194200;28;8809;-71
2022/06/06 06:44:10;;;;;;;;;6.00;6.00;;;;;;;;5194273;28;8767;-71
2022/06/06 06:47:22;;;;;;;;;5.00;5.00;;;;;;;;5210434;28;8830;-71
2022/06/06 06:49:53;;;;;;;;;12.50;12.25;;;;;;;;5210409;28;8822;-71
2022/06/06 06:52:36;;;;;;;;;14.00;14.00;;;;;;;;5210670;28;8801;-71
2022/06/06 06:55:32;;;;;;;;;12.50;12.50;;;;;;;;5213173;28;8921;-71
2022/06/06 06:58:06;;;;;;;;;9.75;9.75;;;;;;;;5193514;28;8787;-71
2022/06/06 07:01:00;;;;;;;;;6.75;6.75;;;;;;;;5193664;28;8916;-71
2022/06/06 07:09:43;;;;;;;;;7.50;7.50;;;;;;;;5227902;28;8767;-71
2022/06/06 07:12:33;;;;;;;;;10.00;10.00;;;;;;;;5227972;28;8805;-71
2022/06/06 07:15:22;;;;;;;;;10.50;10.50;;;;;;;;5210135;28;9505;-71
2022/06/06 07:17:59;;;;;;;;;11.00;11.00;;;;;;;;5193404;28;9220;-71
2022/06/06 07:20:30;;;;;;;;;11.75;11.75;;;;;;;;5193363;28;8840;-72
2022/06/06 07:23:06;;;;;;;;;9.75;9.75;;;;;;;;5193299;28;8790;-71
2022/06/06 07:25:39;;;;;;;;;11.00;11.00;;;;;;;;5227980;28;8798;-71
2022/06/06 07:28:28;;;;;;;;;10.00;9.75;;;;;;;;5210033;28;8779;-71
2022/06/06 07:31:02;;;;;;;;;8.00;8.00;;;;;;;;5209791;28;8851;-71
2022/06/06 07:33:48;;;;;;;;;8.75;8.75;;;;;;;;5209313;28;9325;-71
2022/06/06 07:36:35;;;;;;;;;6.00;6.00;;;;;;;;5209781;28;8926;-71
2022/06/06 07:39:13;;;;;;;;;4.50;4.50;;;;;;;;5210377;28;8783;-72
2022/06/06 07:42:03;;;;;;;;;8.00;7.25;;;;;;;;5212415;28;9564;-71
2022/06/06 07:44:37;;;;;;;;;6.00;6.00;;;;;;;;5193324;28;8782;-71
2022/06/06 07:47:21;;;;;;;;;5.75;5.75;;;;;;;;5209356;28;8795;-71
2022/06/06 07:49:59;;;;;;;;;5.25;5.25;;;;;;;;5226588;28;8935;-71
2022/06/06 07:52:55;;;;;;;;;6.00;6.00;;;;;;;;5211874;28;8755;-71
2022/06/06 07:55:44;;;;;;;;;5.50;5.50;;;;;;;;5209144;28;8844;-71
2022/06/06 07:58:56;;;;;;;;;6.25;6.25;;;;;;;;5226923;28;8803;-71
2022/06/06 08:01:50;;;;;;;;;6.75;6.75;;;;;;;;5198428;28;8787;-71
2022/06/06 08:04:33;;;;;;;;;12.00;12.00;;;;;;;;5208938;28;8825;-71
2022/06/06 08:07:23;;;;;;;;;9.75;9.75;;;;;;;;5226627;28;8822;-71
2022/06/06 08:10:42;;;;;;;;;9.00;9.00;;;;;;;;5226766;28;8914;-71
2022/06/06 08:13:31;;;;;;;;;5.75;5.75;;;;;;;;5213302;28;8791;-71
2022/06/06 08:16:18;;;;;;;;;8.50;8.50;;;;;;;;5208881;28;8779;-70
2022/06/06 08:19:07;;;;;;;;;5.50;5.50;;;;;;;;5208816;28;8775;-71
2022/06/06 08:21:40;;;;;;;;;5.75;5.75;;;;;;;;5208762;28;8797;-71
2022/06/06 08:24:21;;;;;;;;;4.00;4.00;;;;;;;;5226422;28;8848;-71
2022/06/06 08:26:53;;;;;;;;;2.00;2.00;;;;;;;;5226322;28;8814;-71
2022/06/06 08:29:43;;;;;;;;;0.00;0.00;;;;;;;;5208660;28;8778;-72
2022/06/06 08:32:14;;;;;;;;;2.25;2.25;;;;;;;;5225956;28;8771;-72
2022/06/06 08:34:47;;;;;;;;;5.00;5.00;;;;;;;;5208504;28;8897;-71
2022/06/06 08:37:37;;;;;;;;;6.75;6.75;;;;;;;;5192052;28;8767;-71
2022/06/06 08:40:17;;;;;;;;;6.25;6.25;;;;;;;;5226158;28;8832;-72
2022/06/06 08:43:00;;;;;;;;;5.00;5.00;;;;;;;;5208484;28;9517;-71
2022/06/06 08:45:43;;;;;;;;;4.25;4.25;;;;;;;;5208354;28;8763;-72
2022/06/06 08:48:24;;;;;;;;;10.50;10.50;;;;;;;;5207831;28;8795;-71
2022/06/06 08:51:28;;;;;;;;;4.50;4.50;;;;;;;;5225815;28;8783;-71
2022/06/06 08:54:17;;;;;;;;;3.75;3.75;;;;;;;;5210978;28;8751;-71
2022/06/06 08:56:48;;;;;;;;;3.00;3.00;;;;;;;;5226470;28;8815;-72
2022/06/06 08:59:31;;;;;;;;;15.67;15.67;;;;;;;;5207873;28;8783;-71
2022/06/06 09:02:26;;;;;;;;;5.50;5.50;;;;;;;;5225719;28;8793;-71
2022/06/06 09:05:23;;;;;;;;;4.00;4.00;;;;;;;;5207823;28;8917;-72
2022/06/06 09:07:58;;;;;;;;;14.50;13.50;;;;;;;;5222531;28;8803;-72
2022/06/06 09:10:38;;;;;;;;;13.25;13.25;;;;;;;;5175336;28;8775;-71
2022/06/06 09:13:36;;;;;;;;;4.25;4.25;;;;;;;;5207888;28;8830;-72
2022/06/06 09:16:26;;;;;;;;;5.00;5.00;;;;;;;;5226237;28;8815;-71
2022/06/06 09:19:28;;;;;;;;;4.50;4.50;;;;;;;;5208093;28;8813;-72
2022/06/06 09:22:23;;;;;;;;;3.50;3.50;;;;;;;;5209147;28;8806;-70
2022/06/06 09:25:03;;;;;;;;;15.00;15.00;;;;;;;;5226388;28;9538;-73
2022/06/06 09:27:34;;;;;;;;;15.25;15.25;;;;;;;;5207698;28;8814;-71
2022/06/06 09:30:18;;;;;;;;;14.50;14.50;;;;;;;;5207813;28;8782;-71
2022/06/06 09:33:08;;;;;;;;;5.50;5.00;;;;;;;;5225790;28;8889;-71
2022/06/06 09:35:57;;;;;;;;;2.75;2.75;;;;;;;;5208287;28;8810;-71
2022/06/06 09:38:31;;;;;;;;;3.00;3.00;;;;;;;;5207388;28;9557;-71
2022/06/06 09:41:08;;;;;;;;;2.75;2.75;;;;;;;;5191216;28;8898;-71
2022/06/06 09:43:44;;;;;;;;;5.00;5.00;;;;;;;;5207793;28;8790;-71
2022/06/06 09:46:18;;;;;;;;;4.75;4.75;;;;;;;;5207625;28;8787;-71
2022/06/06 09:49:03;;;;;;;;;3.00;3.00;;;;;;;;5225631;28;8803;-71
2022/06/06 09:51:33;;;;;;;;;2.75;2.75;;;;;;;;5208381;28;8793;-72
2022/06/06 10:00:14;;;;;;;;;4.00;4.00;;;;;;;;5225750;28;8767;-71
2022/06/06 10:02:51;;;;;;;;;2.00;2.00;;;;;;;;5207827;28;8775;-72
2022/06/06 10:05:59;;;;;;;;;8.00;8.00;;;;;;;;5225136;28;8846;-72
2022/06/06 10:08:32;;;;;;;;;3.75;3.75;;;;;;;;5207689;28;8893;-71
2022/06/06 10:11:12;;;;;;;;;4.00;4.00;;;;;;;;5225275;28;8871;-71
2022/06/06 10:13:52;;;;;;;;;3.25;3.25;;;;;;;;5211170;28;8803;-71
2022/06/06 10:17:00;;;;;;;;;2.25;2.25;;;;;;;;5213683;28;8844;-72
2022/06/06 10:19:42;;;;;;;;;2.00;2.00;;;;;;;;5194631;28;9539;-72
2022/06/06 10:22:28;;;;;;;;;3.00;3.00;;;;;;;;5194394;28;8913;-72
2022/06/06 10:25:14;;;;;;;;;3.00;3.00;;;;;;;;5211332;28;9513;-71
2022/06/06 10:28:12;;;;;;;;;4.00;4.00;;;;;;;;5210870;28;8845;-71
2022/06/06 10:31:04;;;;;;;;;4.50;4.50;;;;;;;;5210914;28;8805;-71
2022/06/06 10:33:50;;;;;;;;;2.75;2.75;;;;;;;;5210969;28;8889;-71
2022/06/06 10:36:34;;;;;;;;;2.25;2.25;;;;;;;;5210795;28;8850;-72
2022/06/06 10:39:17;;;;;;;;;4.00;4.00;;;;;;;;5210696;28;8778;-72
2022/06/06 10:41:53;;;;;;;;;2.75;2.75;;;;;;;;5194519;28;8783;-72
2022/06/06 10:44:40;;;;;;;;;2.25;2.25;;;;;;;;5194265;28;8868;-71
2022/06/06 10:47:21;;;;;;;;;2.75;2.25;;;;;;;;5194310;28;8996;-73
2022/06/06 10:50:02;;;;;;;;;1.75;1.75;;;;;;;;5194343;28;8937;-71
2022/06/06 10:52:45;;;;;;;;;4.00;4.00;;;;;;;;5194535;28;8909;-72
2022/06/06 10:55:20;;;;;;;;;4.00;4.00;;;;;;;;5193665;28;8814;-71
2022/06/06 10:58:23;;;;;;;;;3.50;3.50;;;;;;;;5227954;28;8848;-71
2022/06/06 11:01:14;;;;;;;;;2.50;2.50;;;;;;;;5210665;28;8794;-71
2022/06/06 11:03:51;;;;;;;;;4.00;4.00;;;;;;;;5210258;28;8810;-73
2022/06/06 11:07:00;;;;;;;;;2.00;2.00;;;;;;;;5196362;28;8827;-71
2022/06/06 11:09:55;;;;;;;;;2.00;2.00;;;;;;;;5177944;28;8783;-71
2022/06/06 11:12:45;;;;;;;;;2.75;2.75;;;;;;;;5210136;28;8793;-71
2022/06/06 11:15:16;;;;;;;;;3.00;3.00;;;;;;;;5210587;28;8775;-71
2022/06/06 11:17:47;;;;;;;;;1.00;1.00;;;;;;;;5209693;28;8803;-70
2022/06/06 11:20:21;;;;;;;;;3.33;3.33;;;;;;;;5209816;28;11417;-71
2022/06/06 11:22:55;;;;;;;;;3.50;3.50;;;;;;;;5209749;28;8831;-71
2022/06/06 11:25:26;;;;;;;;;2.50;2.50;;;;;;;;5193196;28;8840;-71
2022/06/06 11:28:17;;;;;;;;;3.00;3.00;;;;;;;;5209576;28;8763;-71
2022/06/06 11:30:51;;;;;;;;;3.50;3.50;;;;;;;;5227685;28;8888;-71
2022/06/06 11:33:54;;;;;;;;;1.75;1.75;;;;;;;;5193187;28;8786;-70
2022/06/06 11:36:28;;;;;;;;;3.50;3.50;;;;;;;;5193275;28;8996;-71
2022/06/06 11:39:11;;;;;;;;;2.25;2.25;;;;;;;;5209615;28;8850;-71
2022/06/06 11:41:48;;;;;;;;;3.50;3.00;;;;;;;;5227357;28;8775;-71
2022/06/06 11:44:38;;;;;;;;;2.00;2.00;;;;;;;;5209849;28;8848;-71
2022/06/06 11:47:09;;;;;;;;;3.00;3.00;;;;;;;;5193327;28;8810;-70
2022/06/06 11:50:23;;;;;;;;;4.00;4.00;;;;;;;;5210298;28;8799;-70
2022/06/06 11:53:03;;;;;;;;;5.00;5.00;;;;;;;;5227234;28;8806;-70
2022/06/06 11:55:47;;;;;;;;;5.00;5.00;;;;;;;;5205084;28;8832;-70
2022/06/06 11:58:33;;;;;;;;;5.00;5.00;;;;;;;;5205105;28;8790;-71
2022/06/06 12:01:43;;;;;;;;;10.50;10.50;;;;;;;;5205932;28;8796;-71
2022/06/06 12:04:30;;;;;;;;;8.75;8.75;;;;;;;;5204794;28;8799;-70
2022/06/06 12:07:04;;;;;;;;;3.75;3.75;;;;;;;;5188532;28;8804;-71
2022/06/06 12:10:01;;;;;;;;;4.75;4.75;;;;;;;;5204765;28;8819;-71
2022/06/06 12:12:47;;;;;;;;;7.00;7.00;;;;;;;;5205673;28;9530;-71
2022/06/06 12:15:50;;;;;;;;;6.00;6.00;;;;;;;;5204883;28;8811;-70
2022/06/06 12:18:29;;;;;;;;;3.00;3.00;;;;;;;;5206113;28;8804;-71
2022/06/06 12:21:06;;;;;;;;;6.00;6.00;;;;;;;;5190709;28;8827;-71
2022/06/06 12:23:58;;;;;;;;;8.25;8.25;;;;;;;;5171692;28;8846;-71
2022/06/06 12:26:44;;;;;;;;;10.50;10.50;;;;;;;;5171762;28;8894;-71
2022/06/06 12:29:22;;;;;;;;;40.60;34.60;;;;;;;;5204648;28;8815;-71
2022/06/06 12:31:53;;;;;;;;;24.25;23.00;;;;;;;;5172216;28;8784;-71
2022/06/06 12:34:24;;;;;;;;;31.40;30.80;;;;;;;;5205473;28;8804;-71
2022/06/06 12:37:01;;;;;;;;;24.00;23.33;;;;;;;;5187794;28;8858;-70
2022/06/06 12:39:42;;;;;;;;;18.00;18.00;;;;;;;;5204298;28;8835;-71
2022/06/06 12:42:23;;;;;;;;;11.50;11.50;;;;;;;;5205424;28;8870;-71
2022/06/06 12:45:04;;;;;;;;;16.25;16.25;;;;;;;;5205839;28;8962;-71
2022/06/06 12:47:54;;;;;;;;;12.25;12.25;;;;;;;;5187708;28;8890;-71
2022/06/06 12:50:42;;;;;;;;;12.00;12.00;;;;;;;;5195119;28;8800;-71
2022/06/06 12:53:27;;;;;;;;;37.40;33.60;;;;;;;;5187744;28;8828;-70
2022/06/06 12:56:23;;;;;;;;;102.40;85.20;;;;;;;;5195149;28;8805;-69
2022/06/06 12:59:25;;;;;;;;;64.60;49.20;;;;;;;;5203730;28;8785;-70
2022/06/06 13:02:10;;;;;;;;;23.60;23.60;;;;;;;;5187621;28;8757;-71
2022/06/06 13:04:54;;;;;;;;;24.80;24.80;;;;;;;;5187464;28;8806;-69
2022/06/06 13:07:53;;;;;;;;;16.50;16.50;;;;;;;;5205211;28;8793;-70
2022/06/06 13:10:43;;;;;;;;;18.25;18.25;;;;;;;;5209021;28;8855;-68
2022/06/06 13:13:17;;;;;;;;;69.80;56.60;;;;;;;;5246222;28;8777;-69
2022/06/06 13:15:55;;;;;;;;;42.20;36.80;;;;;;;;5228600;28;8776;-71
2022/06/06 13:18:32;;;;;;;;;33.40;31.60;;;;;;;;5222985;28;8792;-71
2022/06/06 13:21:09;;;;;;;;;25.60;24.80;;;;;;;;5212237;28;8791;-72
2022/06/06 13:23:53;;;;;;;;;25.40;25.20;;;;;;;;5190940;28;8789;-72
2022/06/06 13:26:24;;;;;;;;;28.60;28.20;;;;;;;;5224655;28;8821;-70
2022/06/06 13:28:55;;;;;;;;;29.25;28.25;;;;;;;;5225597;28;9653;-71
2022/06/06 13:31:38;;;;;;;;;33.80;31.40;;;;;;;;5191386;28;8971;-71
2022/06/06 13:34:57;;;;;;;;;35.00;32.00;;;;;;;;5193586;28;8798;-72
2022/06/06 13:37:42;;;;;;;;;40.20;35.20;;;;;;;;5141854;28;8805;-70
2022/06/06 13:40:42;;;;;;;;;42.00;36.80;;;;;;;;5173090;28;8789;-71
2022/06/06 13:43:37;;;;;;;;;41.60;36.40;;;;;;;;5187137;28;8777;-70
2022/06/06 13:46:46;;;;;;;;;18.25;18.00;;;;;;;;5170530;28;8839;-70
2022/06/06 13:49:42;;;;;;;;;22.00;22.00;;;;;;;;5129753;28;8836;-69
2022/06/06 13:52:42;;;;;;;;;24.75;24.50;;;;;;;;5129495;28;8795;-69
2022/06/06 13:55:22;;;;;;;;;22.60;22.20;;;;;;;;5171087;28;8806;-70
2022/06/06 13:58:05;;;;;;;;;21.25;21.25;;;;;;;;5211334;28;8787;-69
2022/06/06 14:00:56;;;;;;;;;16.50;16.50;;;;;;;;5211561;28;8898;-69
2022/06/06 14:03:45;;;;;;;;;12.50;12.50;;;;;;;;5229395;28;9576;-68
2022/06/06 14:06:32;;;;;;;;;20.33;20.33;;;;;;;;5228506;28;8806;-69
2022/06/06 14:09:34;;;;;;;;;18.75;18.75;;;;;;;;5196949;28;8759;-73
2022/06/06 14:12:10;;;;;;;;;18.00;18.00;;;;;;;;5211139;28;9568;-68
2022/06/06 14:15:03;;;;;;;;;18.50;18.50;;;;;;;;5228847;28;8782;-68
2022/06/06 14:17:37;;;;;;;;;15.00;15.00;;;;;;;;5244082;28;8779;-70
2022/06/06 14:20:32;;;;;;;;;13.50;13.50;;;;;;;;5210996;28;8802;-70
2022/06/06 14:23:22;;;;;;;;;25.75;25.75;;;;;;;;5208145;28;8800;-69
2022/06/06 14:26:00;;;;;;;;;23.25;23.00;;;;;;;;5216462;28;9627;-69
2022/06/06 14:29:02;;;;;;;;;16.50;16.50;;;;;;;;5222389;28;9480;-69
2022/06/06 14:31:41;;;;;;;;;18.75;18.75;;;;;;;;5205876;28;8803;-70
2022/06/06 14:34:18;;;;;;;;;20.00;19.25;;;;;;;;5221278;28;8807;-71
2022/06/06 14:37:10;;;;;;;;;16.25;16.25;;;;;;;;5206226;28;8907;-71
2022/06/06 14:39:46;;;;;;;;;24.00;23.00;;;;;;;;5171912;28;8817;-69
2022/06/06 14:42:25;;;;;;;;;24.25;24.25;;;;;;;;5188277;28;8789;-70
2022/06/06 14:44:58;;;;;;;;;27.75;27.50;;;;;;;;5188114;28;9069;-69
2022/06/06 14:47:31;;;;;;;;;17.50;17.50;;;;;;;;5184899;28;8833;-71
2022/06/06 14:53:00;;;;;;;;;19.00;18.75;;;;;;;;5207278;28;9560;-70
2022/06/06 14:55:33;;;;;;;;;17.75;17.75;;;;;;;;5189345;28;8954;-71
2022/06/06 14:58:11;;;;;;;;;23.00;23.00;;;;;;;;5206292;28;8789;-69
2022/06/06 15:00:53;;;;;;;;;17.50;17.50;;;;;;;;5195005;28;8818;-69
2022/06/06 15:03:37;;;;;;;;;35.50;32.25;;;;;;;;5194439;28;8787;-69
2022/06/06 15:06:09;;;;;;;;;16.00;16.00;;;;;;;;5207238;28;8806;-70
2022/06/06 15:08:45;;;;;;;;;15.50;15.50;;;;;;;;5228172;28;8872;-71
2022/06/06 15:11:19;;;;;;;;;14.25;14.25;;;;;;;;5210419;28;8798;-70
2022/06/06 15:13:57;;;;;;;;;14.25;14.25;;;;;;;;5195441;28;8790;-69
2022/06/06 15:16:30;;;;;;;;;13.75;13.75;;;;;;;;5243389;28;8783;-71
2022/06/06 15:19:26;;;;;;;;;11.00;11.00;;;;;;;;5228113;28;9553;-70
2022/06/06 15:22:19;;;;;;;;;10.25;10.00;;;;;;;;5227698;28;8807;-70
2022/06/06 15:24:52;;;;;;;;;9.00;9.00;;;;;;;;5227444;28;8774;-69
2022/06/06 15:27:36;;;;;;;;;8.75;8.75;;;;;;;;5196832;28;8806;-70
2022/06/06 15:30:12;;;;;;;;;4.50;4.50;;;;;;;;5205494;28;8793;-70
2022/06/06 15:32:53;;;;;;;;;6.50;6.50;;;;;;;;5206615;28;8781;-69
2022/06/06 15:35:26;;;;;;;;;8.00;8.00;;;;;;;;5172374;28;8808;-69
2022/06/06 15:38:00;;;;;;;;;7.00;7.00;;;;;;;;5172969;28;8862;-70
2022/06/06 15:40:35;;;;;;;;;57.60;47.60;;;;;;;;5188943;28;8793;-70
2022/06/06 15:43:18;;;;;;;;;6.75;6.75;;;;;;;;5234108;28;8796;-70
2022/06/06 15:45:54;;;;;;;;;6.25;6.25;;;;;;;;5213516;28;8793;-69
2022/06/06 15:48:37;;;;;;;;;7.50;7.50;;;;;;;;5244920;28;8831;-70
2022/06/06 15:51:21;;;;;;;;;8.50;8.50;;;;;;;;5213605;28;8850;-68
2022/06/06 15:54:00;;;;;;;;;11.00;11.00;;;;;;;;5230273;28;8776;-74
2022/06/06 15:57:05;;;;;;;;;8.00;8.00;;;;;;;;5215431;28;8919;-71
2022/06/06 15:59:57;;;;;;;;;8.50;8.50;;;;;;;;5229901;28;9500;-71
2022/06/06 16:02:35;;;;;;;;;6.25;6.25;;;;;;;;5245819;28;8789;-70
2022/06/06 16:05:27;;;;;;;;;4.00;4.00;;;;;;;;5194989;28;8795;-70
2022/06/06 16:08:22;;;;;;;;;4.00;4.00;;;;;;;;5193433;28;8815;-74
2022/06/06 16:10:55;;;;;;;;;3.75;3.75;;;;;;;;5194139;28;8845;-71
2022/06/06 16:13:32;;;;;;;;;3.00;3.00;;;;;;;;5211289;28;8789;-71
2022/06/06 16:16:13;;;;;;;;;4.50;4.50;;;;;;;;5223511;28;8901;-71
2022/06/06 16:18:56;;;;;;;;;3.75;3.75;;;;;;;;5211141;28;8811;-71
2022/06/06 16:21:46;;;;;;;;;3.00;3.00;;;;;;;;5241983;28;8836;-70
2022/06/06 16:24:36;;;;;;;;;3.00;3.00;;;;;;;;5227905;28;8834;-70
2022/06/06 16:27:15;;;;;;;;;6.00;6.00;;;;;;;;5191659;28;9619;-70
2022/06/06 16:30:23;;;;;;;;;4.50;4.50;;;;;;;;5208642;28;8767;-71
2022/06/06 16:33:00;;;;;;;;;5.00;5.00;;;;;;;;5193268;28;8771;-70